Time;durP1;ratioP1;P1;durP2;ratioP2;P2;SDS_P1;SDS_P2;PMS_P1;PMS_P2;Temp;Humidity;BMP_temperature;BMP_pressure;BME280_temperature;BME280_humidity;BME280_pressure;Samples;Min_cycle;Max_cycle;Signal;HPM_P1;HPM_P2
2022/10/10 00:01:16;;;;;;;4.83;3.30;;;;;;;;;;5088636;28;20257;-75
2022/10/10 00:03:42;;;;;;;5.00;3.33;;;;;;;;;;5079331;28;20184;-75
2022/10/10 00:06:09;;;;;;;3.97;3.50;;;;;;;;;;5074499;28;20181;-75
2022/10/10 00:08:35;;;;;;;4.73;3.20;;;;;;;;;;5083908;28;20205;-75
2022/10/10 00:11:02;;;;;;;4.00;3.20;;;;;;;;;;5081662;28;20269;-75
2022/10/10 00:13:28;;;;;;;7.63;3.60;;;;;;;;;;5069349;28;20206;-75
2022/10/10 00:15:54;;;;;;;4.20;3.40;;;;;;;;;;5081208;28;20181;-75
2022/10/10 00:18:20;;;;;;;4.93;3.97;;;;;;;;;;5089550;28;20173;-75
2022/10/10 00:20:46;;;;;;;5.50;4.10;;;;;;;;;;5090577;28;20192;-75
2022/10/10 00:23:16;;;;;;;6.37;4.93;;;;;;;;;;5087128;28;20204;-75
2022/10/10 00:25:42;;;;;;;7.83;4.90;;;;;;;;;;5066404;28;20181;-75
2022/10/10 00:28:08;;;;;;;8.63;6.30;;;;;;;;;;5081260;28;20250;-75
2022/10/10 00:30:34;;;;;;;9.17;5.50;;;;;;;;;;5084880;28;20721;-75
2022/10/10 00:33:01;;;;;;;8.47;4.47;;;;;;;;;;5077858;28;20669;-75
2022/10/10 00:35:27;;;;;;;6.23;4.10;;;;;;;;;;5046010;28;20181;-75
2022/10/10 00:37:53;;;;;;;6.57;4.00;;;;;;;;;;5071827;28;20227;-75
2022/10/10 00:40:20;;;;;;;5.37;3.87;;;;;;;;;;5068409;28;20200;-75
2022/10/10 00:42:46;;;;;;;7.07;3.73;;;;;;;;;;5078639;28;20228;-75
2022/10/10 00:45:21;;;;;;;3.60;3.23;;;;;;;;;;5086669;28;20188;-75
2022/10/10 00:47:49;;;;;;;6.40;3.77;;;;;;;;;;5086118;28;20586;-75
2022/10/10 00:50:15;;;;;;;5.53;3.93;;;;;;;;;;5082749;28;20185;-75
2022/10/10 00:52:42;;;;;;;5.07;3.70;;;;;;;;;;5081310;28;20204;-75
2022/10/10 00:55:10;;;;;;;4.87;3.80;;;;;;;;;;5082448;28;20585;-75
2022/10/10 00:57:37;;;;;;;5.83;3.90;;;;;;;;;;5080513;28;20184;-75
2022/10/10 01:00:04;;;;;;;6.00;3.50;;;;;;;;;;5088987;28;20210;-75
2022/10/10 01:02:30;;;;;;;5.43;3.50;;;;;;;;;;5087611;28;20200;-75
2022/10/10 01:04:56;;;;;;;4.33;3.60;;;;;;;;;;5084945;28;20184;-75
2022/10/10 01:07:25;;;;;;;4.73;3.60;;;;;;;;;;5085166;28;20199;-75
2022/10/10 01:09:53;;;;;;;5.43;3.80;;;;;;;;;;5078224;28;20649;-75
2022/10/10 01:12:21;;;;;;;4.20;3.80;;;;;;;;;;5077942;28;20196;-76
2022/10/10 01:14:51;;;;;;;5.27;3.60;;;;;;;;;;5081448;28;20927;-75
2022/10/10 01:17:23;;;;;;;5.20;4.00;;;;;;;;;;5084818;28;20219;-75
2022/10/10 01:19:58;;;;;;;4.87;3.53;;;;;;;;;;5077125;28;20193;-75
2022/10/10 01:22:43;;;;;;;4.60;4.00;;;;;;;;;;5080178;28;20225;-75
2022/10/10 01:25:28;;;;;;;6.37;4.33;;;;;;;;;;5066154;28;20207;-75
2022/10/10 01:28:18;;;;;;;6.40;4.43;;;;;;;;;;5080856;28;20669;-75
2022/10/10 01:30:44;;;;;;;5.10;3.63;;;;;;;;;;5084621;28;20613;-75
2022/10/10 01:33:15;;;;;;;6.00;3.70;;;;;;;;;;5080667;28;20207;-74
2022/10/10 01:35:50;;;;;;;4.53;3.70;;;;;;;;;;5082476;28;20172;-74
2022/10/10 01:38:25;;;;;;;6.87;4.20;;;;;;;;;;5080348;28;20266;-74
2022/10/10 01:40:57;;;;;;;4.77;3.90;;;;;;;;;;5086553;28;20216;-74
2022/10/10 01:43:25;;;;;;;5.67;4.43;;;;;;;;;;5083639;28;20208;-75
2022/10/10 01:45:52;;;;;;;5.23;3.83;;;;;;;;;;5086307;28;20643;-75
2022/10/10 01:48:20;;;;;;;7.40;4.00;;;;;;;;;;5080219;28;20549;-75
2022/10/10 01:51:06;;;;;;;5.07;4.00;;;;;;;;;;5077664;28;20187;-75
2022/10/10 01:53:32;;;;;;;6.73;4.90;;;;;;;;;;5079671;28;20184;-75
2022/10/10 01:56:07;;;;;;;6.83;4.50;;;;;;;;;;5081459;28;20285;-75
2022/10/10 01:58:42;;;;;;;7.50;5.00;;;;;;;;;;5084666;28;20186;-75
2022/10/10 02:01:17;;;;;;;6.80;4.50;;;;;;;;;;5080515;28;20239;-75
2022/10/10 02:03:46;;;;;;;4.80;3.90;;;;;;;;;;5084740;28;20184;-75
2022/10/10 02:06:17;;;;;;;5.73;4.10;;;;;;;;;;5077088;28;20187;-75
2022/10/10 02:09:03;;;;;;;6.93;4.87;;;;;;;;;;5065768;28;20326;-74
2022/10/10 02:11:32;;;;;;;6.80;4.27;;;;;;;;;;5077067;28;20204;-75
2022/10/10 02:14:01;;;;;;;6.50;4.20;;;;;;;;;;5081654;28;20177;-75
2022/10/10 02:16:30;;;;;;;8.27;4.47;;;;;;;;;;5079770;28;20276;-75
2022/10/10 02:18:58;;;;;;;6.20;4.17;;;;;;;;;;5061477;28;20225;-75
2022/10/10 02:21:25;;;;;;;7.03;4.97;;;;;;;;;;5080436;28;20291;-75
2022/10/10 02:23:52;;;;;;;5.93;4.80;;;;;;;;;;5085313;28;20193;-75
2022/10/10 02:26:20;;;;;;;8.07;4.40;;;;;;;;;;5080159;28;20207;-75
2022/10/10 02:28:58;;;;;;;6.73;4.33;;;;;;;;;;5079590;28;20204;-75
2022/10/10 02:31:29;;;;;;;4.87;4.17;;;;;;;;;;5086562;28;20686;-75
2022/10/10 02:34:04;;;;;;;5.13;4.20;;;;;;;;;;5082764;28;20278;-75
2022/10/10 02:36:31;;;;;;;6.17;4.23;;;;;;;;;;5077646;28;20188;-75
2022/10/10 02:38:58;;;;;;;6.37;4.37;;;;;;;;;;5083972;28;20787;-75
2022/10/10 02:41:24;;;;;;;5.03;3.80;;;;;;;;;;5086620;28;20215;-75
2022/10/10 02:43:51;;;;;;;6.20;3.90;;;;;;;;;;5084019;28;20179;-74
2022/10/10 02:46:17;;;;;;;5.00;4.23;;;;;;;;;;5082280;28;20190;-75
2022/10/10 02:48:43;;;;;;;7.20;4.73;;;;;;;;;;5086107;28;20306;-75
2022/10/10 02:51:10;;;;;;;5.13;4.33;;;;;;;;;;5086488;28;20670;-75
2022/10/10 02:53:37;;;;;;;4.93;4.17;;;;;;;;;;5080493;28;20172;-75
2022/10/10 02:56:04;;;;;;;7.13;4.40;;;;;;;;;;5083491;28;20180;-75
2022/10/10 02:58:30;;;;;;;5.20;4.70;;;;;;;;;;5084774;28;20188;-75
2022/10/10 03:00:56;;;;;;;6.13;4.60;;;;;;;;;;5079847;28;20218;-75
2022/10/10 03:03:22;;;;;;;5.43;4.53;;;;;;;;;;5085347;28;20215;-75
2022/10/10 03:05:49;;;;;;;5.53;3.80;;;;;;;;;;5086288;28;20192;-75
2022/10/10 03:08:15;;;;;;;5.23;4.10;;;;;;;;;;5089250;28;20192;-75
2022/10/10 03:10:41;;;;;;;6.50;4.43;;;;;;;;;;5088371;28;20624;-75
2022/10/10 03:13:07;;;;;;;5.83;4.50;;;;;;;;;;5071859;28;20680;-75
2022/10/10 03:15:33;;;;;;;7.17;4.53;;;;;;;;;;5091186;28;20176;-75
2022/10/10 03:17:59;;;;;;;5.27;4.60;;;;;;;;;;5090495;28;20710;-75
2022/10/10 03:20:26;;;;;;;5.90;4.60;;;;;;;;;;5091706;28;20583;-75
2022/10/10 03:22:52;;;;;;;9.70;4.70;;;;;;;;;;5083819;28;20216;-75
2022/10/10 03:25:18;;;;;;;6.50;5.03;;;;;;;;;;5086137;28;20264;-75
2022/10/10 03:27:44;;;;;;;7.10;4.90;;;;;;;;;;5077759;28;20196;-75
2022/10/10 03:30:10;;;;;;;5.80;4.77;;;;;;;;;;5080511;28;20182;-75
2022/10/10 03:32:36;;;;;;;5.30;4.20;;;;;;;;;;5086617;28;20571;-75
2022/10/10 03:35:03;;;;;;;7.87;5.63;;;;;;;;;;5080212;28;20181;-75
2022/10/10 03:37:29;;;;;;;6.27;4.93;;;;;;;;;;5079571;28;20617;-75
2022/10/10 03:39:56;;;;;;;5.70;4.57;;;;;;;;;;5087655;28;20664;-75
2022/10/10 03:42:22;;;;;;;6.80;4.50;;;;;;;;;;5079643;28;20213;-75
2022/10/10 03:44:48;;;;;;;5.90;4.70;;;;;;;;;;5081882;28;20188;-75
2022/10/10 03:47:14;;;;;;;8.77;4.90;;;;;;;;;;5089022;28;20208;-75
2022/10/10 03:49:40;;;;;;;6.60;4.43;;;;;;;;;;5081260;28;20177;-75
2022/10/10 03:52:06;;;;;;;6.50;5.13;;;;;;;;;;5088152;28;20196;-75
2022/10/10 03:54:32;;;;;;;6.30;4.37;;;;;;;;;;5077344;28;20710;-75
2022/10/10 03:56:58;;;;;;;7.13;4.80;;;;;;;;;;5078688;28;20208;-75
2022/10/10 03:59:24;;;;;;;5.90;4.30;;;;;;;;;;5085681;28;20169;-75
2022/10/10 04:01:51;;;;;;;5.20;4.67;;;;;;;;;;5086494;28;20212;-75
2022/10/10 04:04:17;;;;;;;5.77;4.63;;;;;;;;;;5083910;28;20188;-75
2022/10/10 04:06:43;;;;;;;9.00;4.67;;;;;;;;;;5081571;28;20235;-75
2022/10/10 04:09:09;;;;;;;5.35;4.65;;;;;;;;;;5088997;28;21166;-75
2022/10/10 04:11:37;;;;;;;7.60;4.80;;;;;;;;;;5083455;28;20296;-75
2022/10/10 04:14:03;;;;;;;5.10;4.60;;;;;;;;;;5081312;28;20429;-75
2022/10/10 04:16:29;;;;;;;6.73;4.40;;;;;;;;;;5081694;28;20441;-75
2022/10/10 04:18:55;;;;;;;7.90;4.43;;;;;;;;;;5082237;28;20272;-75
2022/10/10 04:21:22;;;;;;;5.10;4.60;;;;;;;;;;5087705;28;20188;-75
2022/10/10 04:23:48;;;;;;;7.67;5.00;;;;;;;;;;5085771;28;20192;-75
2022/10/10 04:26:14;;;;;;;6.73;4.50;;;;;;;;;;5086444;28;20184;-75
2022/10/10 04:28:40;;;;;;;4.97;4.10;;;;;;;;;;5085618;28;20235;-75
2022/10/10 04:31:06;;;;;;;5.53;4.60;;;;;;;;;;5079510;28;21135;-75
2022/10/10 04:33:32;;;;;;;6.13;4.70;;;;;;;;;;5086994;28;20587;-75
2022/10/10 04:35:58;;;;;;;6.33;4.50;;;;;;;;;;5085300;28;20272;-75
2022/10/10 04:38:24;;;;;;;6.47;4.43;;;;;;;;;;5085430;28;20263;-75
2022/10/10 04:40:51;;;;;;;4.93;4.10;;;;;;;;;;5087690;28;20376;-75
2022/10/10 04:43:17;;;;;;;5.47;4.43;;;;;;;;;;5082807;28;20232;-75
2022/10/10 04:45:43;;;;;;;7.47;4.80;;;;;;;;;;5082559;28;20773;-75
2022/10/10 04:48:10;;;;;;;5.80;4.90;;;;;;;;;;5083469;28;20523;-75
2022/10/10 04:50:36;;;;;;;7.07;4.80;;;;;;;;;;5081657;28;20184;-75
2022/10/10 04:53:03;;;;;;;6.63;5.10;;;;;;;;;;5080342;28;20205;-75
2022/10/10 04:55:29;;;;;;;5.97;4.73;;;;;;;;;;5082316;28;20177;-75
2022/10/10 04:57:55;;;;;;;5.20;4.30;;;;;;;;;;5066360;28;20181;-75
2022/10/10 05:00:21;;;;;;;5.53;4.67;;;;;;;;;;5088328;28;20185;-75
2022/10/10 05:02:47;;;;;;;5.30;4.70;;;;;;;;;;5084820;28;20287;-75
2022/10/10 05:05:13;;;;;;;5.63;4.90;;;;;;;;;;5061899;28;20186;-75
2022/10/10 05:07:40;;;;;;;6.63;5.17;;;;;;;;;;5082300;28;20647;-75
2022/10/10 05:10:06;;;;;;;5.77;4.93;;;;;;;;;;5077753;28;20185;-76
2022/10/10 05:12:32;;;;;;;6.37;4.90;;;;;;;;;;5079447;28;20223;-75
2022/10/10 05:14:59;;;;;;;5.40;4.90;;;;;;;;;;5087696;28;20262;-75
2022/10/10 05:17:25;;;;;;;7.77;4.77;;;;;;;;;;5084529;28;20310;-75
2022/10/10 05:19:51;;;;;;;6.10;4.50;;;;;;;;;;5082966;28;20185;-75
2022/10/10 05:22:17;;;;;;;4.63;4.13;;;;;;;;;;5077186;28;20629;-75
2022/10/10 05:24:43;;;;;;;5.47;4.53;;;;;;;;;;5080195;28;20237;-77
2022/10/10 05:27:09;;;;;;;5.10;4.60;;;;;;;;;;5077740;28;20180;-76
2022/10/10 05:29:35;;;;;;;9.10;4.97;;;;;;;;;;5081766;28;20184;-77
2022/10/10 05:32:02;;;;;;;6.00;5.13;;;;;;;;;;5058933;28;20213;-75
2022/10/10 05:34:28;;;;;;;5.93;4.87;;;;;;;;;;5081156;28;20185;-75
2022/10/10 05:36:55;;;;;;;5.90;5.30;;;;;;;;;;5080148;28;20188;-75
2022/10/10 05:39:22;;;;;;;5.93;5.33;;;;;;;;;;5057565;28;21025;-75
2022/10/10 05:41:48;;;;;;;7.63;5.67;;;;;;;;;;5077947;28;20193;-75
2022/10/10 05:44:14;;;;;;;7.53;5.73;;;;;;;;;;5069951;28;20264;-75
2022/10/10 05:46:40;;;;;;;7.83;5.50;;;;;;;;;;5080163;28;20188;-75
2022/10/10 05:49:07;;;;;;;8.80;5.60;;;;;;;;;;5081648;28;20681;-72
2022/10/10 05:51:33;;;;;;;8.10;6.27;;;;;;;;;;5081889;28;20211;-76
2022/10/10 05:53:59;;;;;;;8.83;5.90;;;;;;;;;;5081311;28;20180;-80
2022/10/10 05:56:25;;;;;;;10.03;5.67;;;;;;;;;;5084653;28;20207;-75
2022/10/10 05:58:52;;;;;;;7.20;5.97;;;;;;;;;;5077718;28;20181;-75
2022/10/10 06:01:18;;;;;;;5.77;5.17;;;;;;;;;;5078874;28;20854;-75
2022/10/10 06:03:44;;;;;;;7.27;5.60;;;;;;;;;;5085448;28;20221;-75
2022/10/10 06:06:10;;;;;;;8.33;5.97;;;;;;;;;;5077973;28;20188;-75
2022/10/10 06:08:36;;;;;;;8.40;5.23;;;;;;;;;;5086628;28;20212;-75
2022/10/10 06:11:04;;;;;;;7.07;5.60;;;;;;;;;;5078207;28;20184;-75
2022/10/10 06:13:30;;;;;;;9.13;6.07;;;;;;;;;;5064811;28;20230;-76
2022/10/10 06:15:56;;;;;;;6.77;5.63;;;;;;;;;;5074461;28;20761;-76
2022/10/10 06:18:23;;;;;;;7.70;5.20;;;;;;;;;;5078115;28;20181;-76
2022/10/10 06:20:49;;;;;;;6.50;5.60;;;;;;;;;;5081904;28;20228;-76
2022/10/10 06:23:17;;;;;;;10.87;5.47;;;;;;;;;;5081729;28;20315;-75
2022/10/10 06:25:43;;;;;;;10.20;5.57;;;;;;;;;;5085586;28;20229;-75
2022/10/10 06:28:10;;;;;;;8.20;5.00;;;;;;;;;;5067160;28;20212;-75
2022/10/10 06:30:40;;;;;;;8.23;5.30;;;;;;;;;;5088612;28;20659;-75
2022/10/10 06:33:07;;;;;;;7.53;5.67;;;;;;;;;;5084058;28;20212;-76
2022/10/10 06:35:33;;;;;;;6.20;5.60;;;;;;;;;;5078645;28;20176;-75
2022/10/10 06:37:59;;;;;;;8.77;5.67;;;;;;;;;;5079304;28;20272;-75
2022/10/10 06:40:26;;;;;;;8.47;6.03;;;;;;;;;;5087498;28;20271;-75
2022/10/10 06:42:52;;;;;;;7.00;5.83;;;;;;;;;;5072141;28;20207;-75
2022/10/10 06:45:19;;;;;;;8.47;5.90;;;;;;;;;;5090144;28;20840;-76
2022/10/10 06:47:45;;;;;;;8.47;5.30;;;;;;;;;;5087438;28;20208;-75
2022/10/10 06:50:11;;;;;;;8.13;5.93;;;;;;;;;;5083065;28;20181;-76
2022/10/10 06:52:39;;;;;;;7.70;5.43;;;;;;;;;;5087400;28;20200;-75
2022/10/10 06:55:06;;;;;;;8.10;5.43;;;;;;;;;;5078154;28;20176;-76
2022/10/10 06:57:32;;;;;;;13.00;6.23;;;;;;;;;;5089796;28;20659;-76
2022/10/10 06:59:58;;;;;;;7.07;5.50;;;;;;;;;;5088036;28;20208;-76
2022/10/10 07:02:26;;;;;;;10.73;5.50;;;;;;;;;;5092639;28;20218;-76
2022/10/10 07:04:52;;;;;;;8.10;5.20;;;;;;;;;;5064970;28;20192;-76
2022/10/10 07:07:18;;;;;;;6.47;4.90;;;;;;;;;;5090686;28;20338;-76
2022/10/10 07:09:44;;;;;;;12.00;5.23;;;;;;;;;;5080317;28;20188;-76
2022/10/10 07:12:10;;;;;;;7.30;5.17;;;;;;;;;;5085941;28;20219;-76
2022/10/10 07:14:36;;;;;;;9.47;5.23;;;;;;;;;;5092867;28;20637;-76
2022/10/10 07:17:03;;;;;;;9.47;5.23;;;;;;;;;;5091519;28;20548;-76
2022/10/10 07:19:29;;;;;;;5.47;4.97;;;;;;;;;;5087324;28;20282;-76
2022/10/10 07:21:55;;;;;;;7.20;4.93;;;;;;;;;;5083422;28;20196;-76
2022/10/10 07:24:22;;;;;;;5.97;4.87;;;;;;;;;;5082117;28;20177;-76
2022/10/10 07:26:53;;;;;;;7.60;5.63;;;;;;;;;;5079340;28;20177;-76
2022/10/10 07:29:19;;;;;;;8.30;5.27;;;;;;;;;;5093048;28;20208;-76
2022/10/10 07:31:45;;;;;;;9.63;5.93;;;;;;;;;;5089545;28;20204;-77
2022/10/10 07:34:11;;;;;;;8.40;5.67;;;;;;;;;;5084954;28;20814;-76
2022/10/10 07:36:38;;;;;;;6.97;6.20;;;;;;;;;;5083725;28;20706;-76
2022/10/10 07:39:04;;;;;;;11.27;5.93;;;;;;;;;;5071844;28;20671;-76
2022/10/10 07:41:30;;;;;;;9.63;6.30;;;;;;;;;;5077687;28;20209;-75
2022/10/10 07:43:56;;;;;;;8.83;6.30;;;;;;;;;;5084620;28;20177;-76
2022/10/10 07:46:23;;;;;;;9.97;6.67;;;;;;;;;;5060759;28;20195;-75
2022/10/10 07:48:49;;;;;;;8.67;6.57;;;;;;;;;;5085603;28;20691;-76
2022/10/10 07:51:16;;;;;;;6.90;6.17;;;;;;;;;;5085741;28;20226;-76
2022/10/10 07:53:43;;;;;;;8.80;6.07;;;;;;;;;;5085829;28;20221;-76
2022/10/10 07:56:09;;;;;;;10.63;7.00;;;;;;;;;;5084555;28;20179;-76
2022/10/10 07:58:36;;;;;;;14.80;7.03;;;;;;;;;;5090159;28;20660;-76
2022/10/10 08:01:04;;;;;;;8.83;6.10;;;;;;;;;;5078540;28;20226;-76
2022/10/10 08:03:30;;;;;;;10.03;6.63;;;;;;;;;;5081837;28;20246;-76
2022/10/10 08:05:56;;;;;;;8.50;6.53;;;;;;;;;;5084500;28;20219;-75
2022/10/10 08:08:22;;;;;;;11.53;7.10;;;;;;;;;;5087561;28;20204;-75
2022/10/10 08:10:48;;;;;;;13.93;6.87;;;;;;;;;;5086610;28;20181;-75
2022/10/10 08:13:15;;;;;;;7.57;6.40;;;;;;;;;;5085588;28;20251;-75
2022/10/10 08:15:41;;;;;;;8.13;6.27;;;;;;;;;;5083841;28;20180;-75
2022/10/10 08:18:07;;;;;;;9.97;6.97;;;;;;;;;;5070620;28;20181;-75
2022/10/10 08:20:33;;;;;;;9.07;6.57;;;;;;;;;;5061328;28;20191;-75
2022/10/10 08:22:59;;;;;;;7.23;6.30;;;;;;;;;;5086909;28;20204;-75
2022/10/10 08:25:26;;;;;;;8.70;6.80;;;;;;;;;;5088526;28;20184;-75
2022/10/10 08:27:52;;;;;;;10.57;7.27;;;;;;;;;;5087358;28;20205;-75
2022/10/10 08:30:18;;;;;;;9.13;7.63;;;;;;;;;;5086878;28;20180;-75
2022/10/10 08:32:45;;;;;;;9.33;7.33;;;;;;;;;;5090805;28;20195;-75
2022/10/10 08:35:11;;;;;;;10.13;6.87;;;;;;;;;;5089195;28;20212;-75
2022/10/10 08:37:37;;;;;;;8.70;7.13;;;;;;;;;;5086552;28;20168;-77
2022/10/10 08:40:04;;;;;;;7.77;6.60;;;;;;;;;;5068545;28;20191;-77
2022/10/10 08:42:37;;;;;;;7.60;6.80;;;;;;;;;;5086841;28;20204;-77
2022/10/10 08:45:08;;;;;;;8.17;6.40;;;;;;;;;;5081456;28;20184;-75
2022/10/10 08:47:53;;;;;;;9.10;7.27;;;;;;;;;;5081574;28;20283;-75
2022/10/10 08:50:22;;;;;;;7.80;6.87;;;;;;;;;;5086692;28;20242;-77
2022/10/10 08:52:51;;;;;;;11.03;6.90;;;;;;;;;;5066299;28;20184;-74
2022/10/10 08:55:32;;;;;;;7.83;6.47;;;;;;;;;;5078773;28;20176;-75
2022/10/10 08:58:17;;;;;;;9.90;7.10;;;;;;;;;;5081614;28;20189;-77
2022/10/10 09:00:49;;;;;;;6.80;6.10;;;;;;;;;;5079703;28;20999;-78
2022/10/10 09:03:26;;;;;;;11.77;6.70;;;;;;;;;;5081122;28;20545;-76
2022/10/10 09:06:00;;;;;;;9.97;7.13;;;;;;;;;;5075604;28;20591;-76
2022/10/10 09:08:45;;;;;;;10.07;6.73;;;;;;;;;;5060628;28;20608;-77
2022/10/10 09:11:50;;;;;;;12.80;7.17;;;;;;;;;;5079115;28;20200;-77
2022/10/10 09:14:48;;;;;;;11.67;7.57;;;;;;;;;;4994012;28;21902;-76
2022/10/10 09:17:20;;;;;;;10.33;7.73;;;;;;;;;;4978472;28;20285;-76
2022/10/10 09:20:02;;;;;;;10.63;7.70;;;;;;;;;;5027808;28;20806;-77
2022/10/10 09:22:31;;;;;;;9.73;7.00;;;;;;;;;;5045491;28;20212;-76
2022/10/10 09:25:07;;;;;;;9.63;7.00;;;;;;;;;;5078196;28;20606;-76
2022/10/10 09:27:37;;;;;;;7.73;7.00;;;;;;;;;;5078545;28;20212;-76
2022/10/10 09:30:10;;;;;;;11.00;7.27;;;;;;;;;;5077590;28;20249;-76
2022/10/10 09:32:42;;;;;;;9.97;7.50;;;;;;;;;;5058418;28;20201;-76
2022/10/10 09:35:25;;;;;;;10.73;7.00;;;;;;;;;;5077524;28;20185;-76
2022/10/10 09:37:56;;;;;;;11.23;7.10;;;;;;;;;;5077538;28;20180;-76
2022/10/10 09:40:32;;;;;;;8.73;6.57;;;;;;;;;;5078153;28;20527;-76
2022/10/10 09:43:00;;;;;;;10.80;6.57;;;;;;;;;;5059805;28;20233;-77
2022/10/10 09:45:29;;;;;;;7.60;6.50;;;;;;;;;;5080738;28;20565;-76
2022/10/10 09:47:55;;;;;;;6.03;5.37;;;;;;;;;;5076512;28;20208;-76
2022/10/10 09:50:22;;;;;;;7.63;5.80;;;;;;;;;;5081872;28;20176;-76
2022/10/10 09:52:49;;;;;;;6.80;6.07;;;;;;;;;;5088348;28;20192;-80
2022/10/10 09:55:18;;;;;;;7.30;5.60;;;;;;;;;;5074975;28;20189;-78
2022/10/10 09:57:46;;;;;;;8.53;5.60;;;;;;;;;;5081675;28;20618;-77
2022/10/10 10:00:18;;;;;;;6.70;5.50;;;;;;;;;;5081552;28;20197;-80
2022/10/10 10:02:47;;;;;;;5.87;5.27;;;;;;;;;;5068833;28;20243;-79
2022/10/10 10:05:27;;;;;;;7.53;5.27;;;;;;;;;;5086428;28;20192;-79
2022/10/10 10:07:53;;;;;;;7.93;5.67;;;;;;;;;;5086757;28;20859;-79
2022/10/10 10:10:21;;;;;;;6.97;5.40;;;;;;;;;;5085210;28;20238;-80
2022/10/10 10:12:47;;;;;;;11.77;6.23;;;;;;;;;;5061383;28;20934;-79
2022/10/10 10:15:18;;;;;;;9.97;5.87;;;;;;;;;;5065295;28;20192;-74
2022/10/10 10:17:44;;;;;;;9.23;5.77;;;;;;;;;;5051759;28;20177;-77
2022/10/10 10:20:31;;;;;;;9.07;6.07;;;;;;;;;;5078294;28;20223;-77
2022/10/10 10:22:57;;;;;;;9.10;5.97;;;;;;;;;;5060997;28;20205;-77
2022/10/10 10:25:30;;;;;;;7.83;5.10;;;;;;;;;;5078188;28;20192;-77
2022/10/10 10:28:12;;;;;;;6.53;5.17;;;;;;;;;;5062277;28;20307;-78
2022/10/10 10:30:39;;;;;;;8.00;5.27;;;;;;;;;;5081708;28;20259;-77
2022/10/10 10:33:09;;;;;;;6.80;5.03;;;;;;;;;;5086622;28;20200;-77
2022/10/10 10:35:41;;;;;;;6.40;5.00;;;;;;;;;;5080690;28;20193;-77
2022/10/10 10:38:10;;;;;;;7.40;5.40;;;;;;;;;;5082053;28;20188;-74
2022/10/10 10:40:40;;;;;;;8.97;5.17;;;;;;;;;;5082616;28;20187;-74
2022/10/10 10:43:17;;;;;;;6.63;5.10;;;;;;;;;;5083407;28;20204;-73
2022/10/10 10:45:43;;;;;;;6.40;4.80;;;;;;;;;;5071524;28;20224;-74
2022/10/10 10:48:18;;;;;;;7.07;4.83;;;;;;;;;;5071284;28;20292;-73
2022/10/10 10:51:03;;;;;;;5.23;4.73;;;;;;;;;;5079742;28;20174;-73
2022/10/10 10:53:38;;;;;;;8.50;4.90;;;;;;;;;;5080375;28;20256;-75
2022/10/10 10:56:23;;;;;;;8.07;4.90;;;;;;;;;;5073875;28;20226;-73
2022/10/10 10:59:04;;;;;;;7.40;4.57;;;;;;;;;;5076999;28;20275;-74
2022/10/10 11:01:43;;;;;;;6.77;4.97;;;;;;;;;;5075066;28;20288;-75
2022/10/10 11:04:09;;;;;;;8.20;5.30;;;;;;;;;;5079989;28;20184;-73
2022/10/10 11:06:54;;;;;;;7.10;5.10;;;;;;;;;;5077276;28;20891;-72
2022/10/10 11:09:23;;;;;;;7.50;4.53;;;;;;;;;;5073927;28;20216;-72
2022/10/10 11:11:55;;;;;;;6.27;4.27;;;;;;;;;;5079060;28;20301;-72
2022/10/10 11:14:24;;;;;;;8.77;4.40;;;;;;;;;;5064155;28;20178;-72
2022/10/10 11:16:53;;;;;;;10.03;4.80;;;;;;;;;;5078741;28;20198;-72
2022/10/10 11:19:29;;;;;;;6.70;4.27;;;;;;;;;;5076770;28;20749;-72
2022/10/10 11:22:01;;;;;;;7.13;4.00;;;;;;;;;;5083876;28;20333;-72
2022/10/10 11:24:39;;;;;;;6.07;4.33;;;;;;;;;;5080546;28;20751;-72
2022/10/10 11:27:23;;;;;;;5.27;3.70;;;;;;;;;;5077160;28;20231;-72
2022/10/10 11:30:08;;;;;;;5.77;4.00;;;;;;;;;;5082373;28;20183;-73
2022/10/10 11:32:42;;;;;;;6.80;4.07;;;;;;;;;;5076022;28;20215;-74
2022/10/10 11:35:18;;;;;;;6.63;3.90;;;;;;;;;;5084097;28;20185;-73
2022/10/10 11:37:47;;;;;;;4.20;3.60;;;;;;;;;;5060703;28;20632;-73
2022/10/10 11:40:23;;;;;;;7.13;4.07;;;;;;;;;;5086807;28;20188;-74
2022/10/10 11:42:52;;;;;;;5.90;3.83;;;;;;;;;;5061597;28;21481;-74
2022/10/10 11:45:30;;;;;;;6.43;3.67;;;;;;;;;;5079889;28;20664;-74
2022/10/10 11:48:03;;;;;;;7.67;4.10;;;;;;;;;;5079158;28;20208;-74
2022/10/10 11:50:31;;;;;;;8.57;3.77;;;;;;;;;;5060586;28;20664;-74
2022/10/10 11:53:04;;;;;;;5.07;3.53;;;;;;;;;;5078629;28;20829;-74
2022/10/10 11:55:39;;;;;;;8.97;4.03;;;;;;;;;;5076058;28;20191;-74
2022/10/10 11:58:06;;;;;;;5.53;3.27;;;;;;;;;;5076621;28;20559;-74
2022/10/10 12:00:53;;;;;;;6.17;3.23;;;;;;;;;;5086602;28;20227;-74
2022/10/10 12:03:20;;;;;;;7.17;3.60;;;;;;;;;;5080355;28;20212;-74
2022/10/10 12:05:51;;;;;;;6.17;3.40;;;;;;;;;;5084011;28;20185;-74
2022/10/10 12:08:19;;;;;;;6.17;3.37;;;;;;;;;;5075848;28;20218;-74
2022/10/10 12:10:49;;;;;;;6.23;3.10;;;;;;;;;;5078982;28;20185;-74
2022/10/10 12:13:24;;;;;;;7.10;3.10;;;;;;;;;;5078758;28;20208;-74
2022/10/10 12:15:52;;;;;;;5.50;3.20;;;;;;;;;;5076550;28;20202;-74
2022/10/10 12:18:31;;;;;;;8.10;3.80;;;;;;;;;;5076125;28;20183;-74
2022/10/10 12:21:05;;;;;;;6.97;3.33;;;;;;;;;;5082356;28;20195;-74
2022/10/10 12:23:32;;;;;;;8.87;3.60;;;;;;;;;;5076987;28;20183;-74
2022/10/10 12:25:59;;;;;;;8.37;3.27;;;;;;;;;;5082730;28;20239;-74
2022/10/10 12:28:33;;;;;;;8.03;3.30;;;;;;;;;;5079970;28;20242;-74
2022/10/10 12:31:06;;;;;;;6.50;3.33;;;;;;;;;;5085364;28;20183;-74
2022/10/10 12:33:32;;;;;;;6.23;3.60;;;;;;;;;;5080077;28;20189;-74
2022/10/10 12:36:17;;;;;;;8.77;3.57;;;;;;;;;;5074812;28;20765;-74
2022/10/10 12:39:02;;;;;;;10.87;3.50;;;;;;;;;;5081469;28;20189;-74
2022/10/10 12:41:40;;;;;;;10.10;3.80;;;;;;;;;;5062075;28;20206;-74
2022/10/10 12:44:20;;;;;;;7.77;3.57;;;;;;;;;;5076325;28;20192;-74
2022/10/10 12:46:50;;;;;;;8.37;3.60;;;;;;;;;;5084378;28;20207;-74
2022/10/10 12:49:19;;;;;;;8.13;3.67;;;;;;;;;;5085489;28;20240;-74
2022/10/10 12:51:58;;;;;;;9.13;3.13;;;;;;;;;;5076435;28;20211;-74
2022/10/10 12:54:26;;;;;;;8.93;3.00;;;;;;;;;;5083505;28;20599;-75
2022/10/10 12:57:05;;;;;;;7.20;3.00;;;;;;;;;;5081997;28;20173;-74
2022/10/10 12:59:34;;;;;;;10.97;3.20;;;;;;;;;;5078070;28;20195;-74
2022/10/10 13:02:03;;;;;;;8.07;3.30;;;;;;;;;;5072327;28;20584;-75
2022/10/10 13:04:29;;;;;;;6.57;2.90;;;;;;;;;;5073569;28;20188;-75
2022/10/10 13:06:57;;;;;;;7.87;3.17;;;;;;;;;;5078408;28;20293;-74
2022/10/10 13:09:29;;;;;;;7.27;3.00;;;;;;;;;;5084243;28;20201;-75
2022/10/10 13:12:03;;;;;;;6.77;3.50;;;;;;;;;;5080408;28;20220;-72
2022/10/10 13:14:41;;;;;;;7.73;3.40;;;;;;;;;;5080520;28;20174;-72
2022/10/10 13:17:19;;;;;;;9.50;3.37;;;;;;;;;;5077294;28;20209;-72
2022/10/10 13:19:46;;;;;;;11.10;3.57;;;;;;;;;;5073714;28;20181;-72
2022/10/10 13:22:12;;;;;;;7.43;3.33;;;;;;;;;;5063098;28;20184;-72
2022/10/10 13:24:39;;;;;;;7.37;3.10;;;;;;;;;;5074084;28;20183;-72
2022/10/10 13:27:05;;;;;;;9.67;2.80;;;;;;;;;;5084913;28;20565;-72
2022/10/10 13:29:35;;;;;;;10.50;3.07;;;;;;;;;;5073989;28;20208;-72
2022/10/10 13:32:04;;;;;;;8.73;3.13;;;;;;;;;;5078805;28;20226;-75
2022/10/10 13:34:33;;;;;;;9.30;4.23;;;;;;;;;;5084504;28;20181;-73
2022/10/10 13:37:00;;;;;;;7.97;3.53;;;;;;;;;;5078149;28;20587;-73
2022/10/10 13:39:26;;;;;;;8.13;3.43;;;;;;;;;;5079451;28;20270;-73
2022/10/10 13:41:53;;;;;;;7.87;3.00;;;;;;;;;;5083455;28;20193;-72
2022/10/10 13:44:24;;;;;;;9.50;3.40;;;;;;;;;;5082140;28;20183;-72
2022/10/10 13:46:50;;;;;;;5.83;3.07;;;;;;;;;;5085213;28;20652;-73
2022/10/10 13:49:19;;;;;;;8.13;3.30;;;;;;;;;;5082401;28;20261;-72
2022/10/10 13:51:46;;;;;;;10.23;3.13;;;;;;;;;;5076790;28;20194;-73
2022/10/10 13:54:31;;;;;;;9.10;3.60;;;;;;;;;;5060721;28;20583;-73
2022/10/10 13:57:00;;;;;;;9.50;3.50;;;;;;;;;;5079370;28;20262;-72
2022/10/10 13:59:28;;;;;;;8.37;3.20;;;;;;;;;;5077724;28;20187;-72
2022/10/10 14:01:58;;;;;;;8.97;3.30;;;;;;;;;;5082422;28;20215;-73
2022/10/10 14:04:26;;;;;;;7.57;3.33;;;;;;;;;;5082351;28;20199;-73
2022/10/10 14:06:55;;;;;;;12.50;5.40;;;;;;;;;;5085834;28;20168;-73
2022/10/10 14:09:21;;;;;;;6.53;3.60;;;;;;;;;;5085441;28;20200;-73
2022/10/10 14:11:49;;;;;;;6.93;4.30;;;;;;;;;;5078574;28;21133;-73
2022/10/10 14:14:17;;;;;;;8.13;3.27;;;;;;;;;;5078954;28;20172;-73
2022/10/10 14:16:43;;;;;;;9.83;3.47;;;;;;;;;;5080129;28;20683;-73
2022/10/10 14:19:18;;;;;;;6.07;3.37;;;;;;;;;;5077953;28;20271;-72
2022/10/10 14:21:45;;;;;;;8.37;3.40;;;;;;;;;;5085105;28;20203;-73
2022/10/10 14:24:11;;;;;;;7.83;3.23;;;;;;;;;;5082563;28;20212;-73
2022/10/10 14:26:37;;;;;;;9.00;3.40;;;;;;;;;;5078840;28;20181;-73
2022/10/10 14:29:03;;;;;;;8.10;3.53;;;;;;;;;;5058245;28;20591;-73
2022/10/10 14:31:29;;;;;;;5.67;2.90;;;;;;;;;;5082339;28;20487;-73
2022/10/10 14:33:55;;;;;;;8.47;3.23;;;;;;;;;;5078728;28;20171;-72
2022/10/10 14:36:22;;;;;;;6.03;3.10;;;;;;;;;;5077655;28;20172;-73
2022/10/10 14:38:48;;;;;;;7.70;3.00;;;;;;;;;;5080480;28;20180;-72
2022/10/10 14:41:14;;;;;;;9.70;3.23;;;;;;;;;;5076977;28;20189;-72
2022/10/10 14:43:40;;;;;;;7.93;3.27;;;;;;;;;;5079123;28;20185;-72
2022/10/10 14:46:14;;;;;;;5.70;3.07;;;;;;;;;;5080019;28;20537;-72
2022/10/10 14:48:41;;;;;;;7.83;3.20;;;;;;;;;;5080696;28;20296;-72
2022/10/10 14:51:09;;;;;;;9.83;3.40;;;;;;;;;;5079794;28;20265;-73
2022/10/10 14:53:35;;;;;;;6.80;2.90;;;;;;;;;;5079620;28;20257;-73